North Londonderry, Pennsylvania
Current Conditions -  °F | °C
As of 12:58 PM on Friday 28 Nov 2014 (Local Time) from KMUI Reporting Station
Overcast Overcast  
Wind Chill: 26°   Ceiling: 3600
Heat Index: 33°   Visibility: 10mi
Dew Point: 17°   Wind: 8mph
Humidity: 53%   Direction: 330°NNW
Pressure: 30.23"   Gusts: 17mph
Location:  40.2909°N, 76.5834°W
Report Text: KMUI 281758Z AUTO 33007G15KT 260V020 10SM OVC036 00/M08 A3023 RMK AO2 UPB1708E1750RAB1700E1708 SLP245 P0000 60000 T00041083 10004 21009 57010 $
Loading
Personal Weather Stations






























Interactive Weather Map New forecast layout! Learn more

10-Day Weather Forecast

Advertisements
Track Severe Weather on mobile